sensor_id;sensor_type;location;lat;lon;timestamp;pressure;altitude;pressure_sealevel;temperature;humidity
40788;BME280;26497;52.494;7.546;2023-03-13T00:00:06;99626.31;;;13.42;64.65
40788;BME280;26497;52.494;7.546;2023-03-13T00:02:34;99623.94;;;13.65;63.97
40788;BME280;26497;52.494;7.546;2023-03-13T00:05:02;99618.16;;;13.80;63.54
40788;BME280;26497;52.494;7.546;2023-03-13T00:07:30;99619.09;;;13.79;63.28
40788;BME280;26497;52.494;7.546;2023-03-13T00:09:57;99618.38;;;13.42;64.39
40788;BME280;26497;52.494;7.546;2023-03-13T00:12:24;99608.41;;;13.52;64.50
40788;BME280;26497;52.494;7.546;2023-03-13T00:14:52;99606.41;;;13.59;64.59
40788;BME280;26497;52.494;7.546;2023-03-13T00:17:20;99607.84;;;13.71;64.52
40788;BME280;26497;52.494;7.546;2023-03-13T00:19:47;99597.72;;;13.55;65.71
40788;BME280;26497;52.494;7.546;2023-03-13T00:22:14;99591.53;;;13.23;66.71
40788;BME280;26497;52.494;7.546;2023-03-13T00:24:44;99595.09;;;13.54;66.39
40788;BME280;26497;52.494;7.546;2023-03-13T00:27:11;99593.31;;;13.23;67.53
40788;BME280;26497;52.494;7.546;2023-03-13T00:29:39;99590.13;;;13.10;68.73
40788;BME280;26497;52.494;7.546;2023-03-13T00:32:07;99575.66;;;13.23;68.32
40788;BME280;26497;52.494;7.546;2023-03-13T00:34:35;99568.22;;;13.05;69.44
40788;BME280;26497;52.494;7.546;2023-03-13T00:37:02;99573.59;;;13.02;69.96
40788;BME280;26497;52.494;7.546;2023-03-13T00:39:29;99572.53;;;13.09;70.29
40788;BME280;26497;52.494;7.546;2023-03-13T00:41:58;99570.22;;;12.96;70.90
40788;BME280;26497;52.494;7.546;2023-03-13T00:44:28;99559.78;;;12.92;71.35
40788;BME280;26497;52.494;7.546;2023-03-13T00:46:55;99547.28;;;12.97;71.50
40788;BME280;26497;52.494;7.546;2023-03-13T00:49:24;99557.13;;;12.92;72.18
40788;BME280;26497;52.494;7.546;2023-03-13T00:51:51;99554.00;;;12.76;73.02
40788;BME280;26497;52.494;7.546;2023-03-13T00:54:18;99542.09;;;12.92;72.74
40788;BME280;26497;52.494;7.546;2023-03-13T00:56:45;99540.28;;;12.94;72.28
40788;BME280;26497;52.494;7.546;2023-03-13T00:59:13;99535.81;;;12.96;72.68
40788;BME280;26497;52.494;7.546;2023-03-13T01:01:41;99538.44;;;12.98;72.60
40788;BME280;26497;52.494;7.546;2023-03-13T01:04:10;99520.66;;;13.03;73.10
40788;BME280;26497;52.494;7.546;2023-03-13T01:06:40;99521.94;;;12.88;73.99
40788;BME280;26497;52.494;7.546;2023-03-13T01:09:13;99516.81;;;12.82;74.76
40788;BME280;26497;52.494;7.546;2023-03-13T01:11:42;99512.09;;;12.93;74.63
40788;BME280;26497;52.494;7.546;2023-03-13T01:14:11;99496.34;;;12.89;74.80
40788;BME280;26497;52.494;7.546;2023-03-13T01:16:41;99498.19;;;12.87;75.38
40788;BME280;26497;52.494;7.546;2023-03-13T01:19:10;99486.59;;;12.91;75.10
40788;BME280;26497;52.494;7.546;2023-03-13T01:21:39;99478.03;;;12.81;75.44
40788;BME280;26497;52.494;7.546;2023-03-13T01:24:07;99473.81;;;12.74;76.08
40788;BME280;26497;52.494;7.546;2023-03-13T01:26:34;99465.25;;;12.65;76.91
40788;BME280;26497;52.494;7.546;2023-03-13T01:29:02;99460.66;;;12.72;76.74
40788;BME280;26497;52.494;7.546;2023-03-13T01:31:31;99448.72;;;12.89;76.15
40788;BME280;26497;52.494;7.546;2023-03-13T01:34:00;99438.72;;;12.68;76.47
40788;BME280;26497;52.494;7.546;2023-03-13T01:36:28;99437.72;;;12.73;76.91
40788;BME280;26497;52.494;7.546;2023-03-13T01:38:59;99429.50;;;12.82;76.54
40788;BME280;26497;52.494;7.546;2023-03-13T01:41:28;99419.06;;;12.77;76.66
40788;BME280;26497;52.494;7.546;2023-03-13T01:43:56;99415.81;;;12.67;77.32
40788;BME280;26497;52.494;7.546;2023-03-13T01:46:25;99416.38;;;12.49;78.74
40788;BME280;26497;52.494;7.546;2023-03-13T01:48:56;99398.53;;;12.56;78.58
40788;BME280;26497;52.494;7.546;2023-03-13T01:51:27;99392.06;;;12.66;78.50
40788;BME280;26497;52.494;7.546;2023-03-13T01:54:03;99386.88;;;12.61;78.60
40788;BME280;26497;52.494;7.546;2023-03-13T01:56:38;99381.16;;;12.77;77.72
40788;BME280;26497;52.494;7.546;2023-03-13T01:59:10;99368.00;;;12.75;78.07
40788;BME280;26497;52.494;7.546;2023-03-13T02:01:40;99362.59;;;12.78;78.31
40788;BME280;26497;52.494;7.546;2023-03-13T02:04:07;99360.00;;;12.77;78.67
40788;BME280;26497;52.494;7.546;2023-03-13T02:06:37;99352.16;;;12.74;79.07
40788;BME280;26497;52.494;7.546;2023-03-13T02:09:11;99333.78;;;12.69;79.36
40788;BME280;26497;52.494;7.546;2023-03-13T02:11:46;99327.31;;;12.78;79.48
40788;BME280;26497;52.494;7.546;2023-03-13T02:14:16;99318.91;;;12.93;78.91
40788;BME280;26497;52.494;7.546;2023-03-13T02:16:44;99305.94;;;12.86;79.91
40788;BME280;26497;52.494;7.546;2023-03-13T02:19:21;99296.78;;;12.67;80.77
40788;BME280;26497;52.494;7.546;2023-03-13T02:21:54;99290.16;;;12.54;82.19
40788;BME280;26497;52.494;7.546;2023-03-13T02:24:32;99281.09;;;12.61;82.38
40788;BME280;26497;52.494;7.546;2023-03-13T02:27:03;99268.69;;;12.63;82.62
40788;BME280;26497;52.494;7.546;2023-03-13T02:29:30;99264.22;;;12.65;82.33
40788;BME280;26497;52.494;7.546;2023-03-13T02:31:57;99266.59;;;12.46;84.02
40788;BME280;26497;52.494;7.546;2023-03-13T02:34:30;99253.06;;;12.57;83.96
40788;BME280;26497;52.494;7.546;2023-03-13T02:36:59;99256.38;;;12.62;83.82
40788;BME280;26497;52.494;7.546;2023-03-13T02:39:28;99244.25;;;12.57;84.51
40788;BME280;26497;52.494;7.546;2023-03-13T02:41:57;99247.63;;;12.60;84.48
40788;BME280;26497;52.494;7.546;2023-03-13T02:44:28;99237.56;;;12.45;85.21
40788;BME280;26497;52.494;7.546;2023-03-13T02:46:55;99228.44;;;12.55;85.14
40788;BME280;26497;52.494;7.546;2023-03-13T02:49:24;99230.72;;;12.66;84.63
40788;BME280;26497;52.494;7.546;2023-03-13T02:51:53;99230.53;;;12.72;84.87
40788;BME280;26497;52.494;7.546;2023-03-13T02:54:25;99225.97;;;12.49;85.92
40788;BME280;26497;52.494;7.546;2023-03-13T02:56:57;99214.84;;;12.66;85.54
40788;BME280;26497;52.494;7.546;2023-03-13T02:59:27;99195.88;;;12.53;86.27
40788;BME280;26497;52.494;7.546;2023-03-13T03:01:55;99201.66;;;12.64;86.55
40788;BME280;26497;52.494;7.546;2023-03-13T03:04:24;99194.59;;;12.65;86.54
40788;BME280;26497;52.494;7.546;2023-03-13T03:06:53;99181.38;;;12.65;86.64
40788;BME280;26497;52.494;7.546;2023-03-13T03:09:23;99175.59;;;12.80;86.11
40788;BME280;26497;52.494;7.546;2023-03-13T03:11:53;99168.47;;;12.82;86.40
40788;BME280;26497;52.494;7.546;2023-03-13T03:14:24;99158.50;;;12.91;85.61
40788;BME280;26497;52.494;7.546;2023-03-13T03:16:52;99159.72;;;12.80;86.03
40788;BME280;26497;52.494;7.546;2023-03-13T03:19:20;99149.75;;;12.62;87.81
40788;BME280;26497;52.494;7.546;2023-03-13T03:21:47;99145.19;;;12.67;88.11
40788;BME280;26497;52.494;7.546;2023-03-13T03:24:15;99142.22;;;12.76;88.01
40788;BME280;26497;52.494;7.546;2023-03-13T03:26:42;99133.16;;;12.83;87.37
40788;BME280;26497;52.494;7.546;2023-03-13T03:29:09;99138.25;;;12.63;89.03
40788;BME280;26497;52.494;7.546;2023-03-13T03:31:37;99122.19;;;12.69;89.07
40788;BME280;26497;52.494;7.546;2023-03-13T03:34:05;99124.97;;;12.64;89.40
40788;BME280;26497;52.494;7.546;2023-03-13T03:36:33;99111.09;;;12.85;88.73
40788;BME280;26497;52.494;7.546;2023-03-13T03:39:00;99100.00;;;12.98;88.17
40788;BME280;26497;52.494;7.546;2023-03-13T03:41:29;99085.81;;;13.01;87.80
40788;BME280;26497;52.494;7.546;2023-03-13T03:43:56;99076.06;;;13.02;88.06
40788;BME280;26497;52.494;7.546;2023-03-13T03:46:23;99089.53;;;12.95;88.40
40788;BME280;26497;52.494;7.546;2023-03-13T03:48:50;99096.81;;;13.14;87.76
40788;BME280;26497;52.494;7.546;2023-03-13T03:51:19;99075.94;;;13.06;88.22
40788;BME280;26497;52.494;7.546;2023-03-13T03:53:47;99083.41;;;12.93;88.95
40788;BME280;26497;52.494;7.546;2023-03-13T03:56:15;99072.00;;;12.93;89.74
40788;BME280;26497;52.494;7.546;2023-03-13T03:58:42;99067.19;;;13.04;89.65
40788;BME280;26497;52.494;7.546;2023-03-13T04:01:10;99075.75;;;13.11;89.09
40788;BME280;26497;52.494;7.546;2023-03-13T04:03:39;99066.91;;;13.36;87.78
40788;BME280;26497;52.494;7.546;2023-03-13T04:06:09;99065.78;;;13.43;87.20
40788;BME280;26497;52.494;7.546;2023-03-13T04:08:39;99066.91;;;13.36;88.34
40788;BME280;26497;52.494;7.546;2023-03-13T04:11:07;99060.63;;;13.38;88.52
40788;BME280;26497;52.494;7.546;2023-03-13T04:13:34;99066.38;;;13.51;88.28
40788;BME280;26497;52.494;7.546;2023-03-13T04:16:06;99062.44;;;13.62;87.37
40788;BME280;26497;52.494;7.546;2023-03-13T04:18:34;99056.31;;;13.36;89.55
40788;BME280;26497;52.494;7.546;2023-03-13T04:21:03;99051.44;;;13.49;89.41
40788;BME280;26497;52.494;7.546;2023-03-13T04:23:31;99040.03;;;13.47;90.14
40788;BME280;26497;52.494;7.546;2023-03-13T04:26:00;99037.91;;;13.56;90.46
40788;BME280;26497;52.494;7.546;2023-03-13T04:28:27;99044.34;;;13.73;89.83
40788;BME280;26497;52.494;7.546;2023-03-13T04:30:55;99041.13;;;13.87;89.42
40788;BME280;26497;52.494;7.546;2023-03-13T04:33:23;99032.50;;;13.82;88.99
40788;BME280;26497;52.494;7.546;2023-03-13T04:35:54;99022.91;;;13.79;90.10
40788;BME280;26497;52.494;7.546;2023-03-13T04:38:23;99030.19;;;13.74;91.00
40788;BME280;26497;52.494;7.546;2023-03-13T04:40:50;99022.38;;;13.92;90.06
40788;BME280;26497;52.494;7.546;2023-03-13T04:43:19;99011.31;;;13.82;91.36
40788;BME280;26497;52.494;7.546;2023-03-13T04:45:46;99019.75;;;13.92;90.96
40788;BME280;26497;52.494;7.546;2023-03-13T04:48:15;99012.25;;;13.81;91.80
40788;BME280;26497;52.494;7.546;2023-03-13T04:50:42;99007.47;;;14.11;91.06
40788;BME280;26497;52.494;7.546;2023-03-13T04:53:09;99007.91;;;14.43;89.00
40788;BME280;26497;52.494;7.546;2023-03-13T04:55:37;98981.50;;;14.20;90.07
40788;BME280;26497;52.494;7.546;2023-03-13T04:58:04;98988.72;;;14.16;90.80
40788;BME280;26497;52.494;7.546;2023-03-13T05:00:40;98996.19;;;14.06;91.51
40788;BME280;26497;52.494;7.546;2023-03-13T05:03:11;98984.22;;;14.18;91.09
40788;BME280;26497;52.494;7.546;2023-03-13T05:05:38;98986.63;;;14.24;91.61
40788;BME280;26497;52.494;7.546;2023-03-13T05:08:06;98978.41;;;14.30;90.66
40788;BME280;26497;52.494;7.546;2023-03-13T05:10:35;98969.06;;;14.42;91.12
40788;BME280;26497;52.494;7.546;2023-03-13T05:13:02;98961.69;;;14.49;90.48
40788;BME280;26497;52.494;7.546;2023-03-13T05:15:30;98964.28;;;14.51;90.42
40788;BME280;26497;52.494;7.546;2023-03-13T05:17:58;98968.84;;;14.26;92.50
40788;BME280;26497;52.494;7.546;2023-03-13T05:20:25;98957.78;;;14.58;91.33
40788;BME280;26497;52.494;7.546;2023-03-13T05:22:53;98956.84;;;14.38;91.70
40788;BME280;26497;52.494;7.546;2023-03-13T05:25:20;98957.38;;;14.47;92.42
40788;BME280;26497;52.494;7.546;2023-03-13T05:27:47;98954.09;;;14.60;91.28
40788;BME280;26497;52.494;7.546;2023-03-13T05:30:15;98941.44;;;14.67;91.10
40788;BME280;26497;52.494;7.546;2023-03-13T05:32:42;98933.03;;;14.78;90.81
40788;BME280;26497;52.494;7.546;2023-03-13T05:35:10;98951.81;;;14.73;90.89
40788;BME280;26497;52.494;7.546;2023-03-13T05:37:38;98937.56;;;14.55;93.02
40788;BME280;26497;52.494;7.546;2023-03-13T05:40:07;98930.31;;;14.59;92.71
40788;BME280;26497;52.494;7.546;2023-03-13T05:42:35;98922.44;;;14.57;93.53
40788;BME280;26497;52.494;7.546;2023-03-13T05:45:02;98914.63;;;14.54;94.04
40788;BME280;26497;52.494;7.546;2023-03-13T05:47:30;98911.59;;;14.62;93.63
40788;BME280;26497;52.494;7.546;2023-03-13T05:49:57;98915.31;;;14.58;94.23
40788;BME280;26497;52.494;7.546;2023-03-13T05:52:27;98905.03;;;14.71;93.27
40788;BME280;26497;52.494;7.546;2023-03-13T05:54:57;98915.75;;;14.68;94.02
40788;BME280;26497;52.494;7.546;2023-03-13T05:57:24;98922.91;;;14.86;93.07
40788;BME280;26497;52.494;7.546;2023-03-13T05:59:51;98903.47;;;15.24;90.92
40788;BME280;26497;52.494;7.546;2023-03-13T06:02:19;98907.44;;;14.96;92.57
40788;BME280;26497;52.494;7.546;2023-03-13T06:04:46;98902.28;;;14.93;92.92
40788;BME280;26497;52.494;7.546;2023-03-13T06:07:14;98911.69;;;15.00;92.23
40788;BME280;26497;52.494;7.546;2023-03-13T06:10:04;98912.16;;;14.89;93.00
40788;BME280;26497;52.494;7.546;2023-03-13T06:12:31;98923.63;;;14.71;95.02
40788;BME280;26497;52.494;7.546;2023-03-13T06:14:58;98917.91;;;14.99;93.64
40788;BME280;26497;52.494;7.546;2023-03-13T06:17:25;98899.47;;;14.96;93.22
40788;BME280;26497;52.494;7.546;2023-03-13T06:19:52;98892.59;;;14.92;94.03
40788;BME280;26497;52.494;7.546;2023-03-13T06:22:20;98903.06;;;14.95;93.32
40788;BME280;26497;52.494;7.546;2023-03-13T06:24:47;98896.66;;;14.80;95.17
40788;BME280;26497;52.494;7.546;2023-03-13T06:27:16;98911.81;;;14.97;93.61
40788;BME280;26497;52.494;7.546;2023-03-13T06:29:43;98905.31;;;15.04;93.07
40788;BME280;26497;52.494;7.546;2023-03-13T06:32:10;98904.66;;;14.99;93.77
40788;BME280;26497;52.494;7.546;2023-03-13T06:34:37;98915.66;;;15.28;91.79
40788;BME280;26497;52.494;7.546;2023-03-13T06:37:05;98918.53;;;14.85;94.56
40788;BME280;26497;52.494;7.546;2023-03-13T06:39:32;98907.44;;;14.96;94.40
40788;BME280;26497;52.494;7.546;2023-03-13T06:42:00;98910.28;;;14.92;94.17
40788;BME280;26497;52.494;7.546;2023-03-13T06:44:28;98905.97;;;15.27;92.50
40788;BME280;26497;52.494;7.546;2023-03-13T06:46:55;98910.47;;;15.08;93.75
40788;BME280;26497;52.494;7.546;2023-03-13T06:49:23;98909.31;;;14.94;94.33
40788;BME280;26497;52.494;7.546;2023-03-13T06:51:50;98904.66;;;14.99;94.26
40788;BME280;26497;52.494;7.546;2023-03-13T06:54:17;98905.84;;;15.11;92.98
40788;BME280;26497;52.494;7.546;2023-03-13T06:56:44;98911.03;;;15.14;93.28
40788;BME280;26497;52.494;7.546;2023-03-13T06:59:12;98910.94;;;14.97;93.90
40788;BME280;26497;52.494;7.546;2023-03-13T07:01:40;98917.41;;;15.10;93.66
40788;BME280;26497;52.494;7.546;2023-03-13T07:04:11;98913.88;;;15.29;93.24
40788;BME280;26497;52.494;7.546;2023-03-13T07:06:39;98916.75;;;15.24;93.50
40788;BME280;26497;52.494;7.546;2023-03-13T07:09:09;98868.94;;;15.24;93.16
40788;BME280;26497;52.494;7.546;2023-03-13T07:11:37;98905.56;;;15.54;91.67
40788;BME280;26497;52.494;7.546;2023-03-13T07:14:04;98904.88;;;15.51;90.59
40788;BME280;26497;52.494;7.546;2023-03-13T07:16:32;98904.31;;;15.44;90.61
40788;BME280;26497;52.494;7.546;2023-03-13T07:19:01;98905.47;;;15.38;91.87
40788;BME280;26497;52.494;7.546;2023-03-13T07:21:29;98897.22;;;15.44;91.64
40788;BME280;26497;52.494;7.546;2023-03-13T07:23:58;98897.13;;;15.46;90.72
40788;BME280;26497;52.494;7.546;2023-03-13T07:26:25;98883.09;;;15.61;90.24
40788;BME280;26497;52.494;7.546;2023-03-13T07:28:52;98885.97;;;15.57;90.21
40788;BME280;26497;52.494;7.546;2023-03-13T07:31:21;98880.13;;;15.85;87.91
40788;BME280;26497;52.494;7.546;2023-03-13T07:33:50;98881.66;;;15.54;89.72
40788;BME280;26497;52.494;7.546;2023-03-13T07:36:20;98866.31;;;15.78;88.37
40788;BME280;26497;52.494;7.546;2023-03-13T07:38:49;98864.03;;;15.71;87.25
40788;BME280;26497;52.494;7.546;2023-03-13T07:41:17;98861.00;;;15.78;87.40
40788;BME280;26497;52.494;7.546;2023-03-13T07:43:45;98854.91;;;15.76;87.63
40788;BME280;26497;52.494;7.546;2023-03-13T07:46:16;98864.28;;;15.84;86.31
40788;BME280;26497;52.494;7.546;2023-03-13T07:48:45;98868.88;;;15.80;87.12
40788;BME280;26497;52.494;7.546;2023-03-13T07:51:14;98864.16;;;15.87;86.37
40788;BME280;26497;52.494;7.546;2023-03-13T07:53:44;98844.94;;;15.62;86.27
40788;BME280;26497;52.494;7.546;2023-03-13T07:56:14;98855.44;;;15.83;85.56
40788;BME280;26497;52.494;7.546;2023-03-13T07:58:42;98853.25;;;15.74;85.09
40788;BME280;26497;52.494;7.546;2023-03-13T08:01:12;98847.38;;;16.02;82.97
40788;BME280;26497;52.494;7.546;2023-03-13T08:03:40;98852.47;;;16.07;83.22
40788;BME280;26497;52.494;7.546;2023-03-13T08:06:10;98846.84;;;16.13;82.34
40788;BME280;26497;52.494;7.546;2023-03-13T08:08:40;98855.19;;;16.23;81.70
40788;BME280;26497;52.494;7.546;2023-03-13T08:11:11;98861.44;;;16.22;81.27
40788;BME280;26497;52.494;7.546;2023-03-13T08:13:40;98843.88;;;16.19;80.72
40788;BME280;26497;52.494;7.546;2023-03-13T08:16:10;98833.47;;;16.15;80.99
40788;BME280;26497;52.494;7.546;2023-03-13T08:18:41;98844.84;;;16.34;80.23
40788;BME280;26497;52.494;7.546;2023-03-13T08:21:11;98852.94;;;16.15;80.50
40788;BME280;26497;52.494;7.546;2023-03-13T08:23:39;98855.25;;;16.39;80.39
40788;BME280;26497;52.494;7.546;2023-03-13T08:26:10;98849.97;;;16.55;78.79
40788;BME280;26497;52.494;7.546;2023-03-13T08:28:39;98855.44;;;16.52;78.93
40788;BME280;26497;52.494;7.546;2023-03-13T08:31:08;98847.88;;;16.44;78.57
40788;BME280;26497;52.494;7.546;2023-03-13T08:33:36;98848.84;;;16.43;78.73
40788;BME280;26497;52.494;7.546;2023-03-13T08:36:10;98851.06;;;16.51;78.52
40788;BME280;26497;52.494;7.546;2023-03-13T08:38:39;98861.09;;;16.95;76.96
40788;BME280;26497;52.494;7.546;2023-03-13T08:41:10;98863.97;;;16.75;77.24
40788;BME280;26497;52.494;7.546;2023-03-13T08:43:38;98854.00;;;17.12;76.41
40788;BME280;26497;52.494;7.546;2023-03-13T08:46:05;98856.00;;;16.91;76.10
40788;BME280;26497;52.494;7.546;2023-03-13T08:48:32;98860.72;;;16.86;75.93
40788;BME280;26497;52.494;7.546;2023-03-13T08:51:01;98856.50;;;16.81;76.58
40788;BME280;26497;52.494;7.546;2023-03-13T08:53:29;98850.56;;;16.60;76.95
40788;BME280;26497;52.494;7.546;2023-03-13T08:55:57;98876.25;;;17.11;75.74
40788;BME280;26497;52.494;7.546;2023-03-13T08:58:25;98855.66;;;16.81;76.20
40788;BME280;26497;52.494;7.546;2023-03-13T09:00:54;98880.94;;;16.56;79.21
40788;BME280;26497;52.494;7.546;2023-03-13T09:03:21;98881.88;;;16.21;80.64
40788;BME280;26497;52.494;7.546;2023-03-13T09:05:48;98875.44;;;16.43;80.15
40788;BME280;26497;52.494;7.546;2023-03-13T09:08:15;98874.19;;;16.33;79.83
40788;BME280;26497;52.494;7.546;2023-03-13T09:10:43;98883.63;;;16.72;78.45
40788;BME280;26497;52.494;7.546;2023-03-13T09:13:10;98882.84;;;17.04;76.29
40788;BME280;26497;52.494;7.546;2023-03-13T09:15:38;98874.53;;;16.76;78.16
40788;BME280;26497;52.494;7.546;2023-03-13T09:18:05;98867.03;;;17.17;75.98
40788;BME280;26497;52.494;7.546;2023-03-13T09:20:32;98867.53;;;17.39;74.49
40788;BME280;26497;52.494;7.546;2023-03-13T09:23:00;98866.78;;;17.21;74.26
40788;BME280;26497;52.494;7.546;2023-03-13T09:25:27;98856.53;;;17.46;74.29
40788;BME280;26497;52.494;7.546;2023-03-13T09:27:54;98853.03;;;17.76;72.78
40788;BME280;26497;52.494;7.546;2023-03-13T09:30:21;98861.56;;;17.50;73.71
40788;BME280;26497;52.494;7.546;2023-03-13T09:32:49;98853.94;;;17.44;73.83
40788;BME280;26497;52.494;7.546;2023-03-13T09:35:17;98845.28;;;17.41;74.00
40788;BME280;26497;52.494;7.546;2023-03-13T09:37:44;98841.88;;;17.06;76.45
40788;BME280;26497;52.494;7.546;2023-03-13T09:40:14;98847.94;;;17.24;76.83
40788;BME280;26497;52.494;7.546;2023-03-13T09:42:44;98843.59;;;17.07;76.95
40788;BME280;26497;52.494;7.546;2023-03-13T09:45:17;98849.06;;;17.67;74.86
40788;BME280;26497;52.494;7.546;2023-03-13T09:47:53;98835.31;;;17.75;72.59
40788;BME280;26497;52.494;7.546;2023-03-13T09:50:25;98829.69;;;17.79;72.50
40788;BME280;26497;52.494;7.546;2023-03-13T09:52:58;98810.19;;;17.93;70.82
40788;BME280;26497;52.494;7.546;2023-03-13T09:55:30;98846.00;;;18.34;69.78
40788;BME280;26497;52.494;7.546;2023-03-13T09:58:03;98843.13;;;17.78;71.12
40788;BME280;26497;52.494;7.546;2023-03-13T10:00:37;98834.25;;;17.77;70.59
40788;BME280;26497;52.494;7.546;2023-03-13T10:03:13;98840.28;;;17.81;70.62
40788;BME280;26497;52.494;7.546;2023-03-13T10:05:47;98839.47;;;17.64;70.54
40788;BME280;26497;52.494;7.546;2023-03-13T10:08:17;98842.19;;;17.63;70.97
40788;BME280;26497;52.494;7.546;2023-03-13T10:10:50;98846.09;;;17.57;71.23
40788;BME280;26497;52.494;7.546;2023-03-13T10:13:32;98847.88;;;17.73;70.12
40788;BME280;26497;52.494;7.546;2023-03-13T10:16:07;98832.06;;;18.58;67.89
40788;BME280;26497;52.494;7.546;2023-03-13T10:18:43;98805.28;;;18.60;65.96
40788;BME280;26497;52.494;7.546;2023-03-13T10:21:17;98820.84;;;19.37;64.68
40788;BME280;26497;52.494;7.546;2023-03-13T10:23:49;98817.03;;;19.41;62.13
40788;BME280;26497;52.494;7.546;2023-03-13T10:26:22;98818.03;;;18.98;60.65
40788;BME280;26497;52.494;7.546;2023-03-13T10:28:51;98783.88;;;18.89;62.17
40788;BME280;26497;52.494;7.546;2023-03-13T10:31:24;98816.16;;;18.42;63.41
40788;BME280;26497;52.494;7.546;2023-03-13T10:34:01;98817.50;;;18.64;62.92
40788;BME280;26497;52.494;7.546;2023-03-13T10:36:40;98825.63;;;18.48;64.79
40788;BME280;26497;52.494;7.546;2023-03-13T10:39:13;98818.63;;;18.45;64.59
40788;BME280;26497;52.494;7.546;2023-03-13T10:41:41;98835.03;;;18.24;65.30
40788;BME280;26497;52.494;7.546;2023-03-13T10:44:16;98836.16;;;18.20;66.48
40788;BME280;26497;52.494;7.546;2023-03-13T10:46:46;98835.06;;;17.94;68.23
40788;BME280;26497;52.494;7.546;2023-03-13T10:49:18;98792.63;;;18.49;63.58
40788;BME280;26497;52.494;7.546;2023-03-13T10:51:48;98796.31;;;19.17;60.61
40788;BME280;26497;52.494;7.546;2023-03-13T10:54:22;98793.84;;;19.14;58.24
40788;BME280;26497;52.494;7.546;2023-03-13T10:56:50;98783.69;;;19.19;57.63
40788;BME280;26497;52.494;7.546;2023-03-13T10:59:23;98788.72;;;19.64;56.32
40788;BME280;26497;52.494;7.546;2023-03-13T11:01:52;98778.50;;;19.84;54.24
40788;BME280;26497;52.494;7.546;2023-03-13T11:04:30;98770.69;;;19.81;53.34
40788;BME280;26497;52.494;7.546;2023-03-13T11:07:02;98783.31;;;19.92;54.42
40788;BME280;26497;52.494;7.546;2023-03-13T11:09:30;98788.66;;;19.79;53.86
40788;BME280;26497;52.494;7.546;2023-03-13T11:12:03;98771.88;;;19.89;53.80
40788;BME280;26497;52.494;7.546;2023-03-13T11:14:31;98764.50;;;19.80;54.64
40788;BME280;26497;52.494;7.546;2023-03-13T11:17:03;98769.22;;;20.28;53.17
40788;BME280;26497;52.494;7.546;2023-03-13T11:19:50;98766.31;;;20.69;51.39
40788;BME280;26497;52.494;7.546;2023-03-13T11:22:31;98770.72;;;20.70;52.00
40788;BME280;26497;52.494;7.546;2023-03-13T11:25:19;98763.63;;;20.18;51.88
40788;BME280;26497;52.494;7.546;2023-03-13T11:27:57;98759.44;;;20.40;53.47
40788;BME280;26497;52.494;7.546;2023-03-13T11:30:48;98736.28;;;20.89;51.99
40788;BME280;26497;52.494;7.546;2023-03-13T11:33:30;98746.28;;;21.23;51.07
40788;BME280;26497;52.494;7.546;2023-03-13T11:36:13;98739.00;;;20.76;51.83
40788;BME280;26497;52.494;7.546;2023-03-13T11:38:46;98734.09;;;20.70;50.89
40788;BME280;26497;52.494;7.546;2023-03-13T11:41:39;98734.75;;;20.11;52.91
40788;BME280;26497;52.494;7.546;2023-03-13T11:44:29;98734.28;;;20.30;54.42
40788;BME280;26497;52.494;7.546;2023-03-13T11:47:22;98738.13;;;20.76;52.50
40788;BME280;26497;52.494;7.546;2023-03-13T11:50:28;98738.34;;;20.86;51.38
40788;BME280;26497;52.494;7.546;2023-03-13T11:53:27;98735.47;;;21.25;51.87
40788;BME280;26497;52.494;7.546;2023-03-13T11:56:05;98718.63;;;20.50;53.38
40788;BME280;26497;52.494;7.546;2023-03-13T11:58:56;98740.69;;;20.53;53.71
40788;BME280;26497;52.494;7.546;2023-03-13T12:01:27;98719.97;;;20.18;53.40
40788;BME280;26497;52.494;7.546;2023-03-13T12:03:59;98721.69;;;20.19;54.32
40788;BME280;26497;52.494;7.546;2023-03-13T12:06:32;98711.84;;;20.07;54.12
40788;BME280;26497;52.494;7.546;2023-03-13T12:09:08;98702.78;;;20.71;53.21
40788;BME280;26497;52.494;7.546;2023-03-13T12:11:42;98685.78;;;20.96;49.22
40788;BME280;26497;52.494;7.546;2023-03-13T12:14:19;98699.22;;;20.83;50.42
40788;BME280;26497;52.494;7.546;2023-03-13T12:16:52;98692.22;;;20.94;49.17
40788;BME280;26497;52.494;7.546;2023-03-13T12:19:27;98699.59;;;20.79;50.37
40788;BME280;26497;52.494;7.546;2023-03-13T12:22:08;98695.19;;;20.77;50.84
40788;BME280;26497;52.494;7.546;2023-03-13T12:24:43;98693.25;;;20.80;50.28
40788;BME280;26497;52.494;7.546;2023-03-13T12:27:17;98684.41;;;21.26;50.01
40788;BME280;26497;52.494;7.546;2023-03-13T12:29:54;98674.19;;;21.78;48.73
40788;BME280;26497;52.494;7.546;2023-03-13T12:32:33;98670.34;;;21.58;48.61
40788;BME280;26497;52.494;7.546;2023-03-13T12:35:14;98659.25;;;21.40;47.84
40788;BME280;26497;52.494;7.546;2023-03-13T12:37:47;98655.72;;;21.04;49.01
40788;BME280;26497;52.494;7.546;2023-03-13T12:40:24;98642.66;;;20.88;48.63
40788;BME280;26497;52.494;7.546;2023-03-13T12:42:57;98644.50;;;20.99;48.64
40788;BME280;26497;52.494;7.546;2023-03-13T12:45:32;98634.31;;;21.15;48.14
40788;BME280;26497;52.494;7.546;2023-03-13T12:48:40;98632.00;;;21.80;47.16
40788;BME280;26497;52.494;7.546;2023-03-13T12:51:33;98622.69;;;21.50;46.74
40788;BME280;26497;52.494;7.546;2023-03-13T12:54:26;98642.31;;;21.51;46.96
40788;BME280;26497;52.494;7.546;2023-03-13T12:57:21;98630.66;;;21.75;46.34
40788;BME280;26497;52.494;7.546;2023-03-13T12:59:54;98612.22;;;21.59;46.57
40788;BME280;26497;52.494;7.546;2023-03-13T13:02:27;98620.75;;;21.53;46.25
40788;BME280;26497;52.494;7.546;2023-03-13T13:04:58;98620.56;;;21.67;47.59
40788;BME280;26497;52.494;7.546;2023-03-13T13:07:28;98616.16;;;21.66;46.71
40788;BME280;26497;52.494;7.546;2023-03-13T13:10:16;98605.00;;;21.48;47.55
40788;BME280;26497;52.494;7.546;2023-03-13T13:13:24;98584.78;;;21.55;44.99
40788;BME280;26497;52.494;7.546;2023-03-13T13:15:59;98603.44;;;21.57;46.33
40788;BME280;26497;52.494;7.546;2023-03-13T13:18:29;98594.88;;;22.20;44.56